Time;durP1;ratioP1;P1;durP2;ratioP2;P2;SDS_P1;SDS_P2;PMS_P1;PMS_P2;Temp;Humidity;BMP_temperature;BMP_pressure;BME280_temperature;BME280_humidity;BME280_pressure;Samples;Min_cycle;Max_cycle;Signal;HPM_P1;HPM_P2
2021/08/04 00:01:07;;;;;;;0.20;0.20;;;;;;;18.20;60.46;101491.69;5053219;28;20029;-93
2021/08/04 00:03:34;;;;;;;0.68;0.68;;;;;;;18.26;60.25;101493.25;5052631;28;20029;-93
2021/08/04 00:06:00;;;;;;;0.20;0.20;;;;;;;18.28;60.79;101483.34;5052999;28;20036;-94
2021/08/04 00:08:26;;;;;;;0.10;0.10;;;;;;;18.30;60.60;101486.81;5052222;28;20021;-93
2021/08/04 00:10:53;;;;;;;0.10;0.10;;;;;;;18.32;60.09;101490.31;5052183;28;20486;-93
2021/08/04 00:13:19;;;;;;;0.00;0.00;;;;;;;18.33;60.11;101489.38;5052401;28;20025;-93
2021/08/04 00:15:46;;;;;;;0.00;0.00;;;;;;;18.34;60.11;101496.47;5052436;28;20039;-93
2021/08/04 00:18:12;;;;;;;0.10;0.10;;;;;;;18.30;60.52;101492.19;5052500;28;20033;-92
2021/08/04 00:20:39;;;;;;;0.10;0.10;;;;;;;18.30;59.94;101494.88;5052480;28;20104;-92
2021/08/04 00:23:05;;;;;;;0.10;0.10;;;;;;;18.27;60.47;101486.97;5052217;28;20106;-93
2021/08/04 00:25:32;;;;;;;0.10;0.10;;;;;;;18.24;60.21;101487.97;5052566;28;20024;-92
2021/08/04 00:27:58;;;;;;;0.08;0.08;;;;;;;18.23;60.22;101488.00;5052627;28;20068;-92
2021/08/04 00:30:25;;;;;;;0.00;0.00;;;;;;;18.18;60.22;101487.34;5052683;28;20060;-93
2021/08/04 00:32:54;;;;;;;0.10;0.10;;;;;;;18.14;60.05;101488.41;5052125;28;20104;-92
2021/08/04 00:35:23;;;;;;;0.10;0.10;;;;;;;18.07;60.30;101482.44;5052174;28;20025;-93
2021/08/04 00:37:50;;;;;;;0.55;0.55;;;;;;;18.02;60.15;101482.63;5052314;28;20025;-93
2021/08/04 00:40:17;;;;;;;0.10;0.10;;;;;;;17.97;60.49;101483.72;5052714;28;20111;-92
2021/08/04 00:42:44;;;;;;;0.10;0.10;;;;;;;17.93;60.87;101480.25;5052484;28;20033;-92
2021/08/04 00:45:11;;;;;;;0.35;0.35;;;;;;;17.91;60.98;101480.34;5052231;28;20040;-92
2021/08/04 00:47:39;;;;;;;0.28;0.28;;;;;;;17.91;60.72;101487.50;5051972;28;20033;-92
2021/08/04 00:50:07;;;;;;;0.00;0.00;;;;;;;17.90;61.01;101489.31;5057352;28;20111;-92
2021/08/04 00:52:34;;;;;;;0.30;0.30;;;;;;;17.91;61.01;101482.16;5056742;28;20372;-92
2021/08/04 00:55:00;;;;;;;0.30;0.30;;;;;;;17.93;61.30;101486.50;5052249;28;20074;-92
2021/08/04 00:57:27;;;;;;;0.10;0.10;;;;;;;17.96;61.06;101485.53;5051555;28;20107;-90
2021/08/04 00:59:53;;;;;;;0.03;0.03;;;;;;;17.96;60.96;101490.91;5051907;28;20475;-93
2021/08/04 01:02:32;;;;;;;0.00;0.00;;;;;;;18.01;60.99;101491.59;5052122;28;20391;-92
2021/08/04 01:05:05;;;;;;;0.10;0.10;;;;;;;17.98;61.00;101489.06;5051801;28;20379;-92
2021/08/04 01:07:37;;;;;;;0.20;0.20;;;;;;;17.97;61.00;101486.41;5052051;28;20055;-91
2021/08/04 01:16:11;;;;;;;0.05;0.05;;;;;;;17.91;61.36;101490.19;5079997;28;20896;-91
2021/08/04 01:18:53;;;;;;;0.25;0.25;;;;;;;17.88;61.08;101487.63;5073556;28;20044;-91
2021/08/04 01:21:28;;;;;;;0.10;0.10;;;;;;;17.87;61.46;101492.13;5061107;28;20059;-91
2021/08/04 01:26:50;;;;;;;0.10;0.10;;;;;;;17.81;61.30;101491.47;5066405;27;20835;-91
2021/08/04 01:29:22;;;;;;;0.00;0.00;;;;;;;17.78;60.88;101488.00;5087748;27;20038;-91
2021/08/04 01:31:49;;;;;;;;;;;;;;;17.88;60.81;101487.63;5111225;27;20391;-89
2021/08/04 01:34:19;;;;;;;0.10;0.10;;;;;;;17.72;61.24;101490.94;5123079;27;19959;-91
2021/08/04 01:36:46;;;;;;;0.00;0.00;;;;;;;17.72;61.56;101492.72;5080636;27;20101;-91
2021/08/04 01:39:23;;;;;;;0.00;0.00;;;;;;;17.77;61.28;101488.94;5132068;27;20032;-91
2021/08/04 01:41:59;;;;;;;0.95;0.95;;;;;;;17.77;61.33;101490.75;5107331;27;20031;-92
2021/08/04 01:44:35;;;;;;;0.00;0.00;;;;;;;17.78;61.34;101484.44;5089202;27;20029;-91
2021/08/04 01:47:10;;;;;;;0.10;0.10;;;;;;;17.78;61.16;101485.31;5136886;27;20021;-91
2021/08/04 01:49:38;;;;;;;0.10;0.10;;;;;;;17.77;61.35;101485.41;5094885;27;20067;-92
2021/08/04 01:52:05;;;;;;;0.10;0.10;;;;;;;17.79;61.27;101489.75;5066694;28;20081;-92
2021/08/04 01:54:32;;;;;;;0.10;0.10;;;;;;;17.82;61.51;101488.75;5131889;27;20104;-92
2021/08/04 01:56:58;;;;;;;0.10;0.10;;;;;;;17.88;61.10;101485.84;5069000;27;20059;-92
2021/08/04 01:59:25;;;;;;;0.05;0.05;;;;;;;17.93;61.40;101480.25;5065652;27;20033;-92
2021/08/04 02:01:52;;;;;;;0.03;0.03;;;;;;;17.95;61.89;101483.78;5107890;27;20095;-92
2021/08/04 02:04:18;;;;;;;0.00;0.00;;;;;;;17.98;61.64;101491.72;5092857;27;20036;-93
2021/08/04 02:06:53;;;;;;;0.10;0.10;;;;;;;18.04;61.44;101493.28;5136521;27;20023;-93
2021/08/04 02:09:29;;;;;;;0.10;0.10;;;;;;;18.04;61.59;101488.75;5088821;27;20461;-92
2021/08/04 02:15:00;;;;;;;0.10;0.10;;;;;;;18.07;61.66;101488.66;5110126;27;20838;-92
2021/08/04 02:17:49;;;;;;;0.10;0.10;;;;;;;18.15;61.48;101482.09;5103493;28;20594;-90
2021/08/04 02:20:37;;;;;;;0.10;0.10;;;;;;;18.14;61.36;101494.63;5083119;28;20030;-92
2021/08/04 02:23:23;;;;;;;0.00;0.00;;;;;;;18.05;61.65;101485.16;5073174;28;20032;-91
2021/08/04 02:26:12;;;;;;;0.00;0.00;;;;;;;18.10;61.30;101480.47;5079854;28;20123;-91
2021/08/04 02:28:41;;;;;;;0.10;0.10;;;;;;;18.05;61.41;101478.94;5086179;28;20028;-89
2021/08/04 02:31:11;;;;;;;0.10;0.10;;;;;;;18.06;61.42;101483.38;5073528;28;20029;-91
2021/08/04 02:33:37;;;;;;;0.10;0.10;;;;;;;18.04;61.54;101478.03;5089741;28;20462;-91
2021/08/04 02:36:04;;;;;;;0.00;0.00;;;;;;;18.05;61.41;101477.13;5077855;28;20534;-90
2021/08/04 02:38:31;;;;;;;0.55;0.55;;;;;;;18.06;61.20;101481.53;5084778;28;20024;-92
2021/08/04 02:40:58;;;;;;;0.10;0.10;;;;;;;18.05;61.62;101485.16;5072597;28;20033;-93
2021/08/04 02:43:25;;;;;;;0.10;0.10;;;;;;;18.04;61.79;101477.19;5083625;28;20483;-94
2021/08/04 02:45:52;;;;;;;0.70;0.45;;;;;;;18.03;61.71;101473.63;5079256;28;20032;-94
2021/08/04 02:48:19;;;;;;;0.10;0.10;;;;;;;18.00;61.72;101470.22;5076215;28;20029;-94
2021/08/04 02:50:50;;;;;;;0.10;0.10;;;;;;;17.98;61.53;101472.97;5086528;28;20020;-93
2021/08/04 02:53:18;;;;;;;0.10;0.10;;;;;;;17.92;61.48;101467.81;5084280;28;20135;-93
2021/08/04 02:55:45;;;;;;;0.08;0.08;;;;;;;17.88;61.14;101467.06;5078275;28;20119;-93
2021/08/04 02:58:12;;;;;;;0.03;0.03;;;;;;;17.86;61.37;101468.06;5076466;28;20032;-93
2021/08/04 03:00:40;;;;;;;0.57;0.57;;;;;;;17.77;61.48;101462.13;5085656;28;20052;-93
2021/08/04 03:03:06;;;;;;;0.10;0.10;;;;;;;17.71;61.39;101458.84;5089196;28;20087;-93
2021/08/04 03:05:33;;;;;;;0.20;0.20;;;;;;;17.61;61.68;101467.22;5081833;28;20499;-93
2021/08/04 03:08:00;;;;;;;0.13;0.13;;;;;;;17.57;61.48;101462.94;5080134;28;20051;-93
2021/08/04 03:10:27;;;;;;;0.45;0.45;;;;;;;17.51;61.52;101457.81;5073737;28;20025;-93
2021/08/04 03:12:53;;;;;;;0.10;0.10;;;;;;;17.49;61.58;101464.16;5088230;28;20395;-92
2021/08/04 03:15:20;;;;;;;0.10;0.10;;;;;;;17.45;61.36;101469.63;5089160;28;20085;-93
2021/08/04 03:17:49;;;;;;;0.20;0.20;;;;;;;17.42;61.44;101468.88;5079649;28;20033;-93
2021/08/04 03:20:15;;;;;;;0.10;0.10;;;;;;;17.35;61.71;101462.88;5081363;28;20032;-93
2021/08/04 03:22:46;;;;;;;0.25;0.25;;;;;;;17.32;61.56;101468.38;5072445;28;20037;-92
2021/08/04 03:25:14;;;;;;;0.10;0.10;;;;;;;17.26;61.71;101463.25;5074945;28;20028;-93
2021/08/04 03:27:41;;;;;;;0.10;0.10;;;;;;;17.25;61.66;101461.50;5063457;28;20170;-92
2021/08/04 03:30:08;;;;;;;0.10;0.10;;;;;;;17.21;61.84;101465.22;5062919;28;20037;-92
2021/08/04 03:32:36;;;;;;;0.10;0.10;;;;;;;17.19;61.64;101462.59;5070975;28;20119;-93
2021/08/04 03:35:04;;;;;;;0.08;0.08;;;;;;;17.13;61.89;101463.72;5058803;28;20028;-93
2021/08/04 03:37:31;;;;;;;0.05;0.05;;;;;;;17.11;61.77;101467.38;5067702;28;20423;-93
2021/08/04 03:39:57;;;;;;;0.10;0.10;;;;;;;17.06;62.01;101467.56;5065761;28;20435;-92
2021/08/04 03:42:23;;;;;;;0.13;0.13;;;;;;;17.04;61.92;101466.72;5060740;28;20488;-92
2021/08/04 03:44:49;;;;;;;0.00;0.00;;;;;;;17.01;61.95;101469.53;5070992;28;20111;-93
2021/08/04 03:47:16;;;;;;;0.10;0.10;;;;;;;16.97;61.64;101471.44;5059740;28;20058;-93
2021/08/04 03:49:42;;;;;;;0.10;0.10;;;;;;;16.96;61.81;101477.72;5068153;28;20037;-93
2021/08/04 03:52:08;;;;;;;0.08;0.08;;;;;;;16.94;62.07;101474.22;5074625;28;20353;-93
2021/08/04 03:54:34;;;;;;;0.40;0.40;;;;;;;16.95;61.60;101465.25;5059183;28;20391;-93
2021/08/04 03:57:00;;;;;;;0.10;0.10;;;;;;;16.91;62.02;101468.06;5070940;28;20056;-93
2021/08/04 03:59:27;;;;;;;0.32;0.32;;;;;;;16.88;61.71;101473.56;5061297;28;20513;-91
2021/08/04 04:01:53;;;;;;;0.10;0.10;;;;;;;16.86;62.11;101470.94;5072174;28;20029;-93
2021/08/04 04:04:19;;;;;;;0.10;0.10;;;;;;;16.86;61.88;101472.72;5073990;28;20063;-93
2021/08/04 04:06:45;;;;;;;0.10;0.10;;;;;;;16.85;61.85;101474.53;5073868;28;20078;-92
2021/08/04 04:09:11;;;;;;;0.10;0.10;;;;;;;16.85;61.59;101469.19;5073746;28;20021;-93
2021/08/04 04:11:38;;;;;;;0.10;0.10;;;;;;;16.82;61.73;101470.16;5070118;28;20082;-92
2021/08/04 04:14:04;;;;;;;0.20;0.20;;;;;;;16.81;61.73;101473.78;5068678;28;20040;-92
2021/08/04 04:16:30;;;;;;;0.10;0.10;;;;;;;16.78;61.88;101476.53;5072912;28;20136;-93
2021/08/04 04:18:56;;;;;;;0.10;0.10;;;;;;;16.77;62.23;101476.59;5079114;28;20071;-91
2021/08/04 04:21:23;;;;;;;0.10;0.10;;;;;;;16.77;61.41;101488.19;5083945;28;20017;-91
2021/08/04 04:23:49;;;;;;;0.30;0.30;;;;;;;16.77;61.91;101487.31;5081658;28;20036;-92
2021/08/04 04:26:15;;;;;;;0.00;0.00;;;;;;;16.75;62.01;101490.03;5084311;28;20032;-92
2021/08/04 04:28:41;;;;;;;0.05;0.05;;;;;;;16.75;62.40;101495.41;5081390;28;20040;-91
2021/08/04 04:31:07;;;;;;;0.10;0.10;;;;;;;16.75;62.12;101484.69;5081533;28;20472;-91
2021/08/04 04:33:33;;;;;;;0.08;0.08;;;;;;;16.76;62.07;101496.25;5084468;28;20483;-92
2021/08/04 04:36:00;;;;;;;0.20;0.15;;;;;;;16.77;62.24;101498.00;5080177;28;20025;-93
2021/08/04 04:38:26;;;;;;;0.10;0.10;;;;;;;16.80;62.49;101492.56;5072869;28;20029;-92
2021/08/04 04:40:53;;;;;;;0.10;0.10;;;;;;;16.81;62.61;101494.31;5073328;28;20017;-92
2021/08/04 04:43:19;;;;;;;0.10;0.10;;;;;;;16.81;62.25;101489.81;5073255;28;20017;-92
2021/08/04 04:45:47;;;;;;;0.00;0.00;;;;;;;16.88;62.02;101489.59;5073102;28;20044;-92
2021/08/04 04:48:14;;;;;;;0.17;0.17;;;;;;;16.90;62.32;101490.44;5073434;28;20044;-92
2021/08/04 04:50:42;;;;;;;0.05;0.05;;;;;;;16.90;62.31;101493.97;5073027;28;20050;-93
2021/08/04 04:53:08;;;;;;;0.22;0.22;;;;;;;16.91;62.18;101494.84;5073030;28;20024;-92
2021/08/04 04:55:34;;;;;;;0.40;0.40;;;;;;;16.91;62.41;101490.41;5073660;28;20036;-91
2021/08/04 04:58:01;;;;;;;0.63;0.63;;;;;;;16.94;62.66;101494.78;5070191;28;20035;-91
2021/08/04 05:00:27;;;;;;;0.10;0.10;;;;;;;16.95;62.52;101502.75;5073896;28;20131;-91
2021/08/04 05:02:53;;;;;;;0.10;0.10;;;;;;;17.00;62.27;101504.38;5072986;28;20031;-92
2021/08/04 05:05:19;;;;;;;0.00;0.00;;;;;;;17.03;62.70;101504.28;5072611;28;20028;-91
2021/08/04 05:07:45;;;;;;;0.00;0.00;;;;;;;17.09;62.78;101504.03;5072762;28;20129;-92
2021/08/04 05:10:12;;;;;;;0.08;0.08;;;;;;;17.15;62.29;101506.50;5072610;28;20115;-92
2021/08/04 05:12:38;;;;;;;0.10;0.10;;;;;;;17.24;62.11;101516.00;5072669;28;20033;-91
2021/08/04 05:15:06;;;;;;;0.30;0.30;;;;;;;17.27;62.37;101507.84;5070789;28;20025;-91
2021/08/04 05:17:32;;;;;;;0.10;0.10;;;;;;;17.32;62.55;101508.56;5072747;28;20028;-92
2021/08/04 05:19:58;;;;;;;0.05;0.05;;;;;;;17.41;62.61;101524.28;5072817;28;20372;-90
2021/08/04 05:22:24;;;;;;;0.10;0.10;;;;;;;17.48;62.42;101516.84;5072513;28;20033;-91
2021/08/04 05:24:50;;;;;;;0.10;0.10;;;;;;;17.55;62.85;101512.16;5073026;28;20064;-92
2021/08/04 05:27:17;;;;;;;0.10;0.10;;;;;;;17.63;62.65;101510.03;5072226;28;20024;-92
2021/08/04 05:29:43;;;;;;;0.10;0.10;;;;;;;17.70;62.69;101511.53;5069735;28;20510;-89
2021/08/04 05:32:09;;;;;;;0.32;0.32;;;;;;;17.81;62.42;101507.56;5072498;28;20038;-91
2021/08/04 05:34:35;;;;;;;0.00;0.00;;;;;;;17.87;62.43;101512.69;5071800;28;20036;-93
2021/08/04 05:37:01;;;;;;;0.40;0.40;;;;;;;17.93;62.53;101523.16;5067534;28;20028;-92
2021/08/04 05:39:27;;;;;;;0.20;0.20;;;;;;;17.91;62.38;101517.88;5071262;28;20441;-91
2021/08/04 05:41:54;;;;;;;0.10;0.10;;;;;;;17.93;62.35;101518.69;5072968;28;20138;-90
2021/08/04 05:44:20;;;;;;;0.75;0.75;;;;;;;17.97;62.52;101519.47;5073123;28;20048;-92
2021/08/04 05:46:46;;;;;;;0.20;0.20;;;;;;;18.01;62.59;101518.41;5070651;28;20471;-94
2021/08/04 05:49:12;;;;;;;0.10;0.10;;;;;;;18.04;62.99;101523.63;5070564;28;20032;-93
2021/08/04 05:51:38;;;;;;;0.10;0.10;;;;;;;18.15;62.45;101511.59;5071655;28;20068;-92
2021/08/04 05:54:04;;;;;;;0.00;0.00;;;;;;;18.20;62.19;101517.66;5066766;28;20036;-93
2021/08/04 05:56:31;;;;;;;0.28;0.25;;;;;;;18.22;62.41;101518.47;5072049;28;20115;-90
2021/08/04 05:58:57;;;;;;;0.00;0.00;;;;;;;18.23;62.00;101520.19;5071971;28;20051;-93
2021/08/04 06:01:23;;;;;;;0.00;0.00;;;;;;;18.25;62.16;101521.00;5070304;28;20025;-91
2021/08/04 06:03:49;;;;;;;0.00;0.00;;;;;;;18.29;62.50;101519.94;5072050;28;20115;-92
2021/08/04 06:06:15;;;;;;;0.10;0.10;;;;;;;18.34;62.09;101523.28;5074761;28;20017;-82
2021/08/04 06:08:43;;;;;;;0.00;0.00;;;;;;;18.41;62.09;101526.63;5073454;28;20024;-95
2021/08/04 06:11:11;;;;;;;0.10;0.10;;;;;;;18.45;62.10;101524.69;5072987;28;20472;-93
2021/08/04 06:13:37;;;;;;;0.60;0.45;;;;;;;18.49;62.47;101520.91;5072313;28;20036;-93
2021/08/04 06:16:03;;;;;;;0.20;0.20;;;;;;;18.54;61.92;101519.81;5073240;28;20105;-92
2021/08/04 06:18:30;;;;;;;0.10;0.10;;;;;;;18.59;62.40;101527.63;5073977;28;20055;-92
2021/08/04 06:20:56;;;;;;;0.10;0.10;;;;;;;18.67;62.09;101525.50;5072449;28;20025;-92
2021/08/04 06:23:22;;;;;;;0.10;0.10;;;;;;;18.73;61.66;101524.38;5068366;28;20043;-93
2021/08/04 06:25:48;;;;;;;0.05;0.05;;;;;;;18.79;62.08;101528.59;5072388;28;20029;-89
2021/08/04 06:28:14;;;;;;;0.10;0.10;;;;;;;18.86;61.57;101519.34;5070970;28;20035;-91
2021/08/04 06:30:40;;;;;;;0.10;0.10;;;;;;;18.92;61.54;101524.47;5071932;28;20035;-89
2021/08/04 06:33:06;;;;;;;0.08;0.08;;;;;;;18.98;61.72;101523.31;5072067;28;20024;-92
2021/08/04 06:35:33;;;;;;;1.08;0.38;;;;;;;19.06;61.66;101532.75;5071736;28;20116;-88
2021/08/04 06:37:59;;;;;;;0.00;0.00;;;;;;;19.13;61.40;101528.00;5071804;28;20119;-80
2021/08/04 06:40:27;;;;;;;0.10;0.10;;;;;;;19.20;61.86;101523.22;5070646;28;20112;-89
2021/08/04 06:42:53;;;;;;;0.30;0.30;;;;;;;19.30;61.31;101527.25;5072110;28;20082;-89
2021/08/04 06:45:20;;;;;;;0.40;0.40;;;;;;;19.40;61.78;101524.97;5075687;28;20029;-95
2021/08/04 06:47:46;;;;;;;0.10;0.10;;;;;;;19.43;61.66;101519.47;5071475;28;20063;-91
2021/08/04 06:50:12;;;;;;;0.00;0.00;;;;;;;19.52;61.52;101515.50;5070897;28;20021;-86
2021/08/04 06:52:38;;;;;;;0.30;0.30;;;;;;;19.55;60.84;101520.69;5072053;28;20020;-89
2021/08/04 06:55:05;;;;;;;0.75;0.75;;;;;;;19.61;60.91;101522.25;5067384;28;20131;-88
2021/08/04 06:57:31;;;;;;;0.10;0.10;;;;;;;19.64;60.64;101522.97;5067478;28;20124;-89
2021/08/04 06:59:57;;;;;;;0.10;0.10;;;;;;;19.69;60.68;101515.56;5072905;28;20032;-93
2021/08/04 07:02:23;;;;;;;0.10;0.10;;;;;;;19.72;60.72;101520.78;5073689;28;20024;-93
2021/08/04 07:04:50;;;;;;;0.08;0.08;;;;;;;19.73;60.67;101517.16;5077871;28;20021;-95
2021/08/04 07:07:16;;;;;;;0.10;0.10;;;;;;;19.75;60.55;101519.78;5081729;28;20024;-96
2021/08/04 07:09:43;;;;;;;0.10;0.10;;;;;;;19.76;60.75;101524.19;5082436;28;20025;-95
2021/08/04 07:12:11;;;;;;;0.03;0.03;;;;;;;19.85;60.45;101528.28;5081793;28;20040;-95
2021/08/04 07:14:38;;;;;;;0.38;0.38;;;;;;;19.91;60.30;101528.00;5076588;28;20078;-95
2021/08/04 07:17:05;;;;;;;0.00;0.00;;;;;;;19.98;60.32;101526.75;5072363;28;20025;-95
2021/08/04 07:19:32;;;;;;;1.05;1.05;;;;;;;20.04;60.06;101526.44;5076612;28;20502;-94
2021/08/04 07:21:58;;;;;;;0.10;0.10;;;;;;;20.10;59.76;101533.38;5074163;28;20037;-92
2021/08/04 07:24:25;;;;;;;0.00;0.00;;;;;;;20.16;59.95;101513.34;5070689;28;20044;-95
2021/08/04 07:26:51;;;;;;;0.20;0.20;;;;;;;20.18;59.96;101528.47;5074697;28;20513;-95
2021/08/04 07:29:17;;;;;;;0.20;0.20;;;;;;;20.25;59.58;101523.66;5074107;28;20432;-95
2021/08/04 07:31:46;;;;;;;0.10;0.10;;;;;;;20.30;59.11;101524.28;5074580;28;20021;-93
2021/08/04 07:34:15;;;;;;;0.25;0.25;;;;;;;20.38;59.13;101523.03;5073984;28;20407;-94
2021/08/04 07:36:41;;;;;;;0.10;0.10;;;;;;;20.39;59.22;101520.28;5070946;28;20025;-85
2021/08/04 07:39:08;;;;;;;0.00;0.00;;;;;;;20.45;58.87;101524.44;5074070;28;20031;-85
2021/08/04 07:41:34;;;;;;;0.47;0.30;;;;;;;20.53;58.92;101524.94;5074048;28;20040;-84
2021/08/04 07:44:02;;;;;;;0.90;0.90;;;;;;;20.60;58.42;101523.69;5072922;28;20028;-84
2021/08/04 07:46:28;;;;;;;0.20;0.20;;;;;;;20.60;57.16;101523.69;5072484;28;20075;-85
2021/08/04 07:48:54;;;;;;;0.00;0.00;;;;;;;20.67;58.33;101522.44;5070999;28;20024;-84
2021/08/04 07:51:20;;;;;;;0.10;0.10;;;;;;;20.77;57.86;101524.66;5073505;28;20035;-84
2021/08/04 07:53:47;;;;;;;0.10;0.10;;;;;;;20.88;57.96;101524.97;5073805;28;20031;-85
2021/08/04 07:56:13;;;;;;;0.00;0.00;;;;;;;20.87;56.47;101519.66;5073562;28;20107;-85
2021/08/04 07:58:39;;;;;;;0.10;0.10;;;;;;;20.96;56.56;101517.34;5074096;28;20025;-84
2021/08/04 08:01:05;;;;;;;0.10;0.10;;;;;;;21.07;57.07;101521.28;5073660;28;20033;-85
2021/08/04 08:03:32;;;;;;;0.10;0.10;;;;;;;21.16;56.66;101520.81;5074150;28;20029;-86
2021/08/04 08:05:58;;;;;;;0.00;0.00;;;;;;;21.26;57.04;101511.28;5072421;28;20047;-85
2021/08/04 08:08:24;;;;;;;0.05;0.05;;;;;;;21.33;56.50;101517.19;5073041;28;20089;-85
2021/08/04 08:10:51;;;;;;;1.35;0.45;;;;;;;21.40;56.36;101513.22;5073463;28;20475;-85
2021/08/04 08:13:17;;;;;;;0.00;0.00;;;;;;;21.46;56.42;101517.41;5074131;28;20123;-85
2021/08/04 08:15:44;;;;;;;0.25;0.25;;;;;;;21.57;56.67;101509.63;5073427;28;20036;-86
2021/08/04 08:18:11;;;;;;;0.10;0.10;;;;;;;21.62;55.38;101501.25;5073345;28;20424;-84
2021/08/04 08:20:40;;;;;;;0.10;0.10;;;;;;;21.69;55.50;101507.19;5073448;28;20021;-84
2021/08/04 08:23:07;;;;;;;0.20;0.20;;;;;;;21.77;55.57;101502.19;5070477;28;20048;-84
2021/08/04 08:25:34;;;;;;;0.10;0.10;;;;;;;21.84;55.31;101500.03;5072946;28;20023;-84
2021/08/04 08:28:00;;;;;;;0.10;0.10;;;;;;;21.93;54.68;101500.41;5072952;28;20078;-83
2021/08/04 08:30:27;;;;;;;0.52;0.38;;;;;;;22.05;55.07;101487.16;5072472;28;20029;-84
2021/08/04 08:32:54;;;;;;;0.00;0.00;;;;;;;22.13;54.76;101480.34;5072907;28;20055;-84
2021/08/04 08:35:21;;;;;;;0.63;0.57;;;;;;;22.17;54.44;101486.44;5072513;28;20025;-84
2021/08/04 08:37:49;;;;;;;0.30;0.30;;;;;;;22.24;54.58;101486.94;5072963;28;20013;-84
2021/08/04 08:40:16;;;;;;;0.10;0.10;;;;;;;22.35;54.49;101495.25;5072524;28;20095;-83
2021/08/04 08:42:44;;;;;;;0.00;0.00;;;;;;;22.45;54.11;101491.09;5071931;28;20047;-87
2021/08/04 08:45:11;;;;;;;0.30;0.30;;;;;;;22.54;53.84;101486.97;5073017;28;20035;-88
2021/08/04 08:47:40;;;;;;;0.00;0.00;;;;;;;22.67;53.83;101491.59;5072652;28;20036;-85
2021/08/04 08:50:07;;;;;;;0.10;0.10;;;;;;;22.73;53.47;101484.00;5073412;28;20025;-83
2021/08/04 08:52:34;;;;;;;0.10;0.10;;;;;;;22.78;51.79;101481.88;5072405;28;20047;-84
2021/08/04 08:55:01;;;;;;;0.10;0.10;;;;;;;22.87;52.93;101485.00;5072401;28;20024;-85
2021/08/04 08:57:28;;;;;;;0.30;0.30;;;;;;;22.87;50.57;101488.56;5072163;28;20024;-84
2021/08/04 08:59:57;;;;;;;0.10;0.10;;;;;;;22.92;51.45;101483.72;5072143;28;20058;-84
2021/08/04 09:02:25;;;;;;;0.00;0.00;;;;;;;23.00;50.89;101483.25;5071753;28;20047;-85
2021/08/04 09:07:43;;;;;;;0.10;0.10;;;;;;;23.17;51.86;101487.63;5081370;27;20430;-86
2021/08/04 09:10:30;;;;;;;0.55;0.55;;;;;;;23.36;50.55;101489.19;5048865;28;20025;-84
2021/08/04 09:13:03;;;;;;;0.30;0.30;;;;;;;23.39;50.14;101486.25;5047393;28;20025;-85
2021/08/04 09:15:34;;;;;;;0.10;0.10;;;;;;;23.46;49.25;101484.91;5046717;28;20071;-85
2021/08/04 09:18:09;;;;;;;0.10;0.10;;;;;;;23.58;50.44;101480.56;5047706;28;20025;-85
2021/08/04 09:20:48;;;;;;;0.10;0.10;;;;;;;23.67;49.83;101482.63;5039034;28;20112;-85
2021/08/04 09:23:16;;;;;;;0.47;0.47;;;;;;;23.71;49.74;101475.19;5048894;28;20037;-84
2021/08/04 09:26:05;;;;;;;0.10;0.10;;;;;;;23.87;50.11;101480.47;5048190;28;20061;-85
2021/08/04 09:28:50;;;;;;;0.45;0.45;;;;;;;23.83;48.25;101479.81;5046711;28;20399;-85
2021/08/04 09:31:16;;;;;;;0.05;0.05;;;;;;;23.96;48.42;101481.72;5048540;28;20025;-84
2021/08/04 09:33:42;;;;;;;0.20;0.20;;;;;;;24.04;48.81;101476.69;5044314;28;20079;-85
2021/08/04 09:36:09;;;;;;;0.10;0.10;;;;;;;24.09;47.18;101474.53;5048096;28;20119;-86
2021/08/04 09:38:35;;;;;;;0.10;0.10;;;;;;;24.22;48.57;101472.72;5047989;28;20049;-86
2021/08/04 09:44:10;;;;;;;0.10;0.10;;;;;;;24.49;46.15;101477.22;5141152;27;20392;-84
2021/08/04 09:46:36;;;;;;;0.22;0.22;;;;;;;24.50;46.04;101468.13;5128958;27;20065;-85
2021/08/04 09:52:05;;;;;;;31.48;1.42;;;;;;;24.77;43.93;101474.47;5068299;28;20387;-85
2021/08/04 09:57:18;;;;;;;0.10;0.10;;;;;;;24.89;45.36;101470.03;5080444;27;20406;-85
2021/08/04 10:00:06;;;;;;;0.20;0.20;;;;;;;25.04;45.33;101467.06;5053453;28;20032;-85
2021/08/04 10:02:32;;;;;;;0.20;0.20;;;;;;;24.89;44.91;101461.91;5048167;28;20107;-86
2021/08/04 10:05:21;;;;;;;0.10;0.10;;;;;;;25.12;44.91;101461.13;5048744;28;20025;-85
2021/08/04 10:08:10;;;;;;;0.28;0.28;;;;;;;25.25;43.59;101457.53;5047494;28;20029;-85
2021/08/04 10:10:42;;;;;;;0.10;0.10;;;;;;;25.23;43.58;101465.75;5046741;28;20025;-85
2021/08/04 10:13:13;;;;;;;0.10;0.10;;;;;;;25.25;44.01;101460.22;5046902;28;20029;-86
2021/08/04 10:15:43;;;;;;;0.10;0.10;;;;;;;25.46;44.26;101461.41;5048000;28;20051;-86
2021/08/04 10:18:13;;;;;;;0.10;0.10;;;;;;;25.56;43.25;101450.75;5062348;22;20029;-84
2021/08/04 10:20:40;;;;;;;0.22;0.22;;;;;;;25.65;44.24;101455.47;5060193;28;20090;-84
2021/08/04 10:23:12;;;;;;;0.15;0.15;;;;;;;25.77;44.12;101459.13;5059079;28;20022;-83
2021/08/04 10:25:39;;;;;;;0.10;0.10;;;;;;;25.78;43.81;101451.84;5058803;28;20033;-84
2021/08/04 10:28:06;;;;;;;0.03;0.03;;;;;;;25.62;44.15;101455.72;5058822;28;20033;-84
2021/08/04 10:30:33;;;;;;;0.10;0.10;;;;;;;25.63;43.51;101451.13;5054759;28;20425;-84
2021/08/04 10:33:00;;;;;;;0.10;0.10;;;;;;;25.80;44.45;101458.88;5057760;28;20032;-84
2021/08/04 10:35:27;;;;;;;0.10;0.10;;;;;;;25.90;44.45;101452.78;5058871;28;20033;-83
2021/08/04 10:37:56;;;;;;;0.68;0.68;;;;;;;25.92;42.46;101453.50;5054155;28;20032;-84
2021/08/04 10:40:27;;;;;;;0.00;0.00;;;;;;;25.87;41.62;101447.56;5057845;28;20025;-86
2021/08/04 10:42:53;;;;;;;0.10;0.10;;;;;;;25.84;43.21;101448.66;5052669;28;20036;-86
2021/08/04 10:48:24;;;;;;;0.28;0.25;;;;;;;25.99;43.22;101452.94;5067366;28;20394;-89
2021/08/04 10:51:15;;;;;;;0.10;0.10;;;;;;;26.17;42.24;101444.41;5046770;28;20033;-87
2021/08/04 10:59:29;;;;;;;0.10;0.10;;;;;;;26.63;41.69;101440.81;5068400;27;20814;-88
2021/08/04 11:05:00;;;;;;;0.10;0.10;;;;;;;27.03;41.64;101444.06;5079850;27;20396;-89
2021/08/04 11:07:27;;;;;;;0.10;0.10;;;;;;;27.21;41.32;101430.84;5069475;28;20056;-88
2021/08/04 11:12:42;;;;;;;0.10;0.10;;;;;;;27.52;40.92;101425.66;5077645;27;20423;-88
2021/08/04 11:15:28;;;;;;;0.13;0.13;;;;;;;27.71;40.61;101414.91;5074336;28;20040;-88
2021/08/04 11:18:13;;;;;;;0.10;0.10;;;;;;;27.63;39.40;101424.72;5058720;28;20033;-86
2021/08/04 11:21:01;;;;;;;0.20;0.20;;;;;;;27.43;37.76;101419.97;5039348;28;20025;-90
2021/08/04 11:23:48;;;;;;;0.10;0.10;;;;;;;27.30;39.18;101421.94;5040283;28;20038;-91
2021/08/04 11:26:28;;;;;;;0.10;0.10;;;;;;;27.10;40.77;101429.00;5046493;28;20553;-89
2021/08/04 11:28:57;;;;;;;0.20;0.20;;;;;;;26.86;39.49;101426.41;5039948;28;20037;-87
2021/08/04 11:31:24;;;;;;;0.03;0.03;;;;;;;26.60;40.64;101423.88;5039487;28;20033;-87
2021/08/04 11:33:51;;;;;;;0.10;0.10;;;;;;;26.53;40.56;101417.19;5036374;28;20472;-87
2021/08/04 11:36:21;;;;;;;0.10;0.10;;;;;;;26.56;40.68;101419.69;5037741;28;20485;-84
2021/08/04 11:44:20;;;;;;;0.20;0.20;;;;;;;26.46;40.11;101423.09;5050874;27;20403;-86
2021/08/04 11:46:49;;;;;;;0.10;0.10;;;;;;;26.32;40.44;101421.47;5066830;28;20036;-86
2021/08/04 11:49:26;;;;;;;0.10;0.10;;;;;;;26.33;41.25;101406.03;5059153;23;20071;-80
2021/08/04 11:51:56;;;;;;;1.08;0.63;;;;;;;26.50;40.41;101415.59;5048071;28;20033;-82
2021/08/04 11:54:35;;;;;;;0.30;0.30;;;;;;;26.80;38.76;101412.34;5048488;28;20033;-82
2021/08/04 11:57:03;;;;;;;0.10;0.10;;;;;;;27.11;39.84;101401.66;5049193;28;20079;-83
2021/08/04 11:59:30;;;;;;;2.08;0.90;;;;;;;27.36;39.24;101407.81;5060369;28;20028;-80
2021/08/04 12:02:00;;;;;;;0.10;0.10;;;;;;;27.66;38.62;101384.50;5068844;28;20036;-81
2021/08/04 12:04:29;;;;;;;0.50;0.50;;;;;;;27.82;37.86;101394.13;5069095;28;20036;-81
2021/08/04 12:06:59;;;;;;;0.30;0.30;;;;;;;28.14;38.61;101385.94;5068991;28;20147;-85
2021/08/04 12:09:29;;;;;;;0.65;0.65;;;;;;;28.29;37.66;101383.75;5051023;28;20029;-81
2021/08/04 12:11:57;;;;;;;0.47;0.45;;;;;;;28.40;36.31;101391.84;5039606;28;20112;-81
2021/08/04 12:14:24;;;;;;;0.20;0.20;;;;;;;28.44;37.15;101394.28;5038846;28;20512;-81